Time;durP1;ratioP1;P1;durP2;ratioP2;P2;SDS_P1;SDS_P2;PMS_P1;PMS_P2;Temp;Humidity;BMP_temperature;BMP_pressure;BME280_temperature;BME280_humidity;BME280_pressure;Samples;Min_cycle;Max_cycle;Signal;HPM_P1;HPM_P2
2023/05/31 00:02:07;;;;;;;6.23;1.70;;;16.30;99.90;;;;;;5066190;28;20423;-74
2023/05/31 00:05:00;;;;;;;7.75;1.70;;;16.30;99.90;;;;;;5066970;28;20395;-74
2023/05/31 00:07:26;;;;;;;8.98;2.00;;;16.20;99.90;;;;;;5065891;28;20392;-74
2023/05/31 00:09:51;;;;;;;6.40;1.87;;;16.10;99.90;;;;;;5059451;28;20397;-75
2023/05/31 00:12:17;;;;;;;8.90;2.00;;;16.20;99.90;;;;;;5048427;28;20532;-74
2023/05/31 00:17:18;;;;;;;8.73;1.90;;;16.30;99.90;;;;;;4721658;23;20444;-69
2023/05/31 00:19:43;;;;;;;7.00;1.80;;;16.50;99.90;;;;;;5016385;28;20413;-68
2023/05/31 00:22:10;;;;;;;8.63;1.60;;;16.60;99.90;;;;;;5010675;28;20455;-70
2023/05/31 00:24:35;;;;;;;6.55;1.50;;;16.70;99.90;;;;;;5011115;28;21041;-70
2023/05/31 00:27:01;;;;;;;7.75;1.80;;;16.70;99.90;;;;;;5025670;28;20469;-69
2023/05/31 00:29:28;;;;;;;6.33;1.90;;;16.80;99.90;;;;;;5030766;28;20481;-69
2023/05/31 00:31:54;;;;;;;9.40;1.90;;;16.90;99.90;;;;;;5030830;28;20410;-69
2023/05/31 00:34:19;;;;;;;7.67;2.07;;;17.00;99.90;;;;;;5031290;28;20391;-69
2023/05/31 00:36:45;;;;;;;6.00;1.50;;;16.80;99.90;;;;;;5031737;28;20948;-69
2023/05/31 00:39:10;;;;;;;8.50;2.20;;;16.80;99.90;;;;;;5031437;28;20889;-69
2023/05/31 00:41:36;;;;;;;6.93;1.80;;;16.80;99.90;;;;;;5031695;28;20427;-69
2023/05/31 00:44:02;;;;;;;5.70;1.52;;;16.80;99.90;;;;;;5031333;28;20478;-69
2023/05/31 00:46:33;;;;;;;9.60;2.08;;;16.90;99.90;;;;;;5031566;28;20418;-69
2023/05/31 00:48:59;;;;;;;7.50;2.10;;;16.90;99.90;;;;;;5039713;28;20412;-69
2023/05/31 00:51:27;;;;;;;9.07;2.05;;;16.90;99.90;;;;;;5050799;28;20425;-69
2023/05/31 00:53:53;;;;;;;7.80;2.10;;;16.90;99.90;;;;;;5050785;28;20393;-69
2023/05/31 00:56:19;;;;;;;7.00;1.80;;;16.90;99.90;;;;;;5050609;28;20385;-69
2023/05/31 00:58:45;;;;;;;12.15;1.90;;;16.70;99.90;;;;;;5050764;28;20760;-69
2023/05/31 01:01:13;;;;;;;11.05;2.28;;;16.70;99.90;;;;;;5033662;28;20532;-69
2023/05/31 01:03:39;;;;;;;6.18;1.60;;;16.80;99.90;;;;;;5030768;28;20383;-69
2023/05/31 01:06:05;;;;;;;6.40;1.60;;;16.80;99.90;;;;;;5030815;28;20453;-69
2023/05/31 01:08:31;;;;;;;8.48;2.03;;;16.80;99.90;;;;;;5031231;28;20577;-68
2023/05/31 01:11:02;;;;;;;7.72;1.75;;;16.70;99.90;;;;;;5030791;28;20849;-68
2023/05/31 01:13:47;;;;;;;7.10;1.73;;;16.70;99.90;;;;;;5031054;28;20391;-69
2023/05/31 01:16:33;;;;;;;6.97;1.77;;;16.60;99.90;;;;;;5030222;28;20429;-69
2023/05/31 01:19:05;;;;;;;6.25;1.90;;;16.60;99.90;;;;;;5026978;28;20419;-69
2023/05/31 01:21:51;;;;;;;7.57;2.10;;;16.60;99.90;;;;;;5051418;28;21145;-70
2023/05/31 01:24:22;;;;;;;6.25;1.50;;;16.60;99.90;;;;;;5050402;28;20393;-69
2023/05/31 01:26:50;;;;;;;8.65;2.05;;;16.60;99.90;;;;;;5050737;28;20404;-70
2023/05/31 01:29:19;;;;;;;8.52;1.90;;;16.60;99.90;;;;;;5050063;28;20639;-69
2023/05/31 01:31:46;;;;;;;6.90;1.63;;;16.60;99.90;;;;;;5050160;28;20393;-69
2023/05/31 01:34:13;;;;;;;7.22;1.70;;;16.50;99.90;;;;;;5042126;28;20479;-69
2023/05/31 01:36:38;;;;;;;6.68;1.73;;;16.50;99.90;;;;;;5028655;28;20396;-70
2023/05/31 01:39:05;;;;;;;9.45;1.92;;;16.50;99.90;;;;;;5030132;28;20398;-69
2023/05/31 01:41:40;;;;;;;7.72;2.13;;;16.50;99.90;;;;;;5030812;28;20878;-69
2023/05/31 01:44:07;;;;;;;6.47;2.00;;;16.50;99.90;;;;;;5029316;28;20957;-69
2023/05/31 01:46:32;;;;;;;5.50;1.50;;;16.50;99.90;;;;;;5029883;28;20871;-70
2023/05/31 01:48:59;;;;;;;8.03;3.00;;;16.50;99.90;;;;;;5038376;28;20414;-69
2023/05/31 01:51:26;;;;;;;7.70;2.22;;;16.40;99.90;;;;;;5038645;28;20737;-69
2023/05/31 01:53:52;;;;;;;7.32;2.00;;;16.40;99.90;;;;;;5029655;28;20391;-69
2023/05/31 01:56:20;;;;;;;7.57;2.00;;;16.40;99.90;;;;;;5030068;28;20696;-69
2023/05/31 01:58:49;;;;;;;6.47;1.92;;;16.40;99.90;;;;;;5029827;28;20473;-69
2023/05/31 02:01:21;;;;;;;9.97;1.90;;;16.40;99.90;;;;;;5029808;28;20438;-69
2023/05/31 02:03:49;;;;;;;6.70;1.50;;;16.30;99.90;;;;;;5028160;28;20458;-69
2023/05/31 02:06:15;;;;;;;6.40;1.58;;;16.30;99.90;;;;;;5028119;28;20415;-70
2023/05/31 02:08:41;;;;;;;7.78;1.88;;;16.30;99.90;;;;;;5028668;28;20483;-70
2023/05/31 02:11:06;;;;;;;6.70;1.93;;;16.30;99.90;;;;;;5029532;28;21208;-70
2023/05/31 02:13:33;;;;;;;6.82;1.80;;;16.30;99.90;;;;;;5029562;28;20387;-70
2023/05/31 02:15:58;;;;;;;7.40;2.10;;;16.30;99.90;;;;;;5030871;28;20474;-69
2023/05/31 02:18:27;;;;;;;6.93;1.70;;;16.20;99.90;;;;;;5033385;28;20488;-69
2023/05/31 02:20:53;;;;;;;7.72;1.98;;;16.20;99.90;;;;;;5049476;28;20731;-69
2023/05/31 02:23:19;;;;;;;7.65;2.03;;;16.10;99.90;;;;;;5048826;28;20409;-69
2023/05/31 02:25:49;;;;;;;6.30;1.90;;;16.00;99.90;;;;;;5036788;28;20387;-69
2023/05/31 02:28:16;;;;;;;7.28;2.17;;;15.90;99.90;;;;;;5028953;28;20494;-69
2023/05/31 02:30:52;;;;;;;11.40;2.28;;;15.80;99.90;;;;;;5029554;28;20454;-69
2023/05/31 02:33:18;;;;;;;6.85;2.03;;;15.80;99.90;;;;;;5028705;28;20387;-69
2023/05/31 02:35:43;;;;;;;7.53;1.77;;;15.80;99.90;;;;;;5029168;28;20389;-69
2023/05/31 02:38:09;;;;;;;7.87;2.30;;;15.80;99.90;;;;;;5028770;28;20474;-69
2023/05/31 02:40:35;;;;;;;9.35;1.90;;;15.60;99.90;;;;;;5028332;28;20390;-69
2023/05/31 02:43:00;;;;;;;6.13;1.80;;;15.50;99.90;;;;;;5028933;28;20774;-69
2023/05/31 02:45:26;;;;;;;7.78;1.90;;;15.40;99.90;;;;;;5028045;28;20403;-69
2023/05/31 02:47:51;;;;;;;7.18;2.20;;;15.30;99.90;;;;;;5028057;28;20917;-69
2023/05/31 02:50:17;;;;;;;7.82;2.20;;;15.10;99.90;;;;;;5047136;28;20502;-69
2023/05/31 02:52:42;;;;;;;9.10;2.10;;;15.00;99.90;;;;;;5048404;28;20760;-69
2023/05/31 02:55:08;;;;;;;8.70;2.10;;;15.00;99.90;;;;;;5048497;28;20763;-69
2023/05/31 02:57:34;;;;;;;6.05;1.77;;;14.90;99.90;;;;;;5048629;28;20969;-69
2023/05/31 03:00:10;;;;;;;6.97;1.90;;;14.90;99.90;;;;;;5034593;28;20461;-69
2023/05/31 03:02:36;;;;;;;6.85;1.80;;;14.80;99.90;;;;;;5028712;28;21258;-69
2023/05/31 03:05:02;;;;;;;6.15;1.88;;;14.60;99.90;;;;;;5027795;28;20391;-69
2023/05/31 03:07:27;;;;;;;8.13;2.13;;;14.60;99.90;;;;;;5020553;28;20411;-69
2023/05/31 03:09:53;;;;;;;6.20;1.80;;;14.50;99.90;;;;;;5009275;28;20427;-69
2023/05/31 03:12:19;;;;;;;8.13;1.93;;;14.40;99.90;;;;;;5026495;28;20749;-69
2023/05/31 03:14:44;;;;;;;8.98;2.40;;;14.40;99.90;;;;;;5027940;28;20387;-69
2023/05/31 03:17:10;;;;;;;6.38;2.20;;;14.30;99.90;;;;;;5027701;28;20504;-69
2023/05/31 03:19:35;;;;;;;8.40;2.00;;;14.30;99.90;;;;;;5040518;28;20413;-69
2023/05/31 03:22:01;;;;;;;6.13;1.70;;;14.30;99.90;;;;;;5048185;28;20487;-69
2023/05/31 03:24:27;;;;;;;7.93;2.10;;;14.30;99.90;;;;;;5048049;28;20768;-69
2023/05/31 03:26:54;;;;;;;9.50;1.90;;;14.20;99.90;;;;;;5048325;28;20869;-69
2023/05/31 03:29:20;;;;;;;6.30;1.92;;;14.10;99.90;;;;;;5048133;28;20401;-69
2023/05/31 03:31:45;;;;;;;6.97;2.00;;;14.00;99.90;;;;;;5047030;28;20417;-69
2023/05/31 03:34:11;;;;;;;7.40;2.40;;;13.90;99.90;;;;;;5032032;28;20423;-69
2023/05/31 03:36:36;;;;;;;8.50;2.23;;;13.80;99.90;;;;;;5027781;28;20741;-69
2023/05/31 03:39:03;;;;;;;10.10;2.20;;;13.80;99.90;;;;;;5027482;28;20395;-69
2023/05/31 03:41:29;;;;;;;5.93;1.80;;;13.70;99.90;;;;;;5037751;28;20970;-69
2023/05/31 03:43:54;;;;;;;11.48;2.38;;;13.70;99.90;;;;;;5047787;28;20394;-69
2023/05/31 03:46:20;;;;;;;12.87;2.20;;;13.70;99.90;;;;;;5047252;28;20949;-69
2023/05/31 03:48:46;;;;;;;7.80;1.90;;;13.70;99.90;;;;;;5047622;28;20790;-69
2023/05/31 03:51:12;;;;;;;9.88;1.65;;;13.70;99.90;;;;;;5039066;28;20607;-69
2023/05/31 03:53:37;;;;;;;9.40;1.93;;;13.80;99.90;;;;;;5047530;28;20389;-69
2023/05/31 03:56:03;;;;;;;7.40;2.10;;;13.80;99.90;;;;;;5047321;28;20408;-69
2023/05/31 03:58:28;;;;;;;6.68;2.00;;;13.80;99.90;;;;;;5047580;28;20392;-69
2023/05/31 04:00:54;;;;;;;6.23;1.87;;;13.90;99.90;;;;;;5036966;28;20407;-69
2023/05/31 04:03:20;;;;;;;7.90;2.00;;;13.90;99.90;;;;;;5009393;28;20404;-69
2023/05/31 04:05:46;;;;;;;6.10;1.80;;;14.00;99.90;;;;;;5005937;28;20400;-69
2023/05/31 04:08:11;;;;;;;7.10;2.03;;;14.00;99.90;;;;;;5023264;28;20453;-69
2023/05/31 04:10:37;;;;;;;8.10;2.03;;;14.10;99.90;;;;;;5026928;28;20415;-69
2023/05/31 04:13:02;;;;;;;6.90;2.00;;;14.00;99.90;;;;;;5026685;28;20399;-69
2023/05/31 04:15:29;;;;;;;6.67;2.23;;;14.00;99.90;;;;;;5027678;28;20976;-69
2023/05/31 04:17:55;;;;;;;8.68;2.17;;;14.00;99.90;;;;;;5028377;28;20403;-69
2023/05/31 04:20:21;;;;;;;7.47;2.50;;;14.00;99.90;;;;;;5044139;28;20408;-68
2023/05/31 04:22:46;;;;;;;11.40;2.38;;;14.00;99.90;;;;;;5047860;28;20930;-73
2023/05/31 04:25:12;;;;;;;8.97;2.50;;;14.00;99.90;;;;;;5032388;28;20521;-75
2023/05/31 04:27:40;;;;;;;6.63;2.13;;;14.10;99.90;;;;;;5027866;28;20397;-75
2023/05/31 04:30:07;;;;;;;16.20;4.15;;;14.30;99.90;;;;;;5028132;28;20516;-74
2023/05/31 04:32:34;;;;;;;7.60;2.13;;;14.40;99.90;;;;;;5028139;28;20470;-74
2023/05/31 04:35:03;;;;;;;7.15;2.10;;;14.40;99.90;;;;;;5028534;28;20503;-74
2023/05/31 04:37:29;;;;;;;8.55;2.10;;;14.40;99.90;;;;;;5025802;28;20500;-74
2023/05/31 04:39:56;;;;;;;7.53;2.70;;;14.40;99.90;;;;;;5038404;28;20397;-74
2023/05/31 04:42:24;;;;;;;9.80;2.70;;;14.50;99.90;;;;;;5025011;28;21038;-75
2023/05/31 04:44:57;;;;;;;10.00;1.90;;;14.50;99.90;;;;;;5017997;28;20405;-74
2023/05/31 04:47:24;;;;;;;9.57;2.50;;;14.60;99.90;;;;;;5022934;28;20411;-75
2023/05/31 04:49:50;;;;;;;8.30;2.10;;;15.00;99.90;;;;;;5024189;28;20424;-75
2023/05/31 04:52:17;;;;;;;7.60;2.50;;;15.30;99.90;;;;;;5016426;28;20401;-74
2023/05/31 04:54:43;;;;;;;7.25;1.95;;;15.90;99.90;;;;;;5027641;28;20409;-76
2023/05/31 04:57:08;;;;;;;7.07;2.00;;;17.00;99.90;;;;;;5011061;28;20712;-76
2023/05/31 04:59:34;;;;;;;5.88;1.98;;;18.70;99.90;;;;;;5023165;28;20436;-76
2023/05/31 05:02:02;;;;;;;8.40;2.05;;;20.30;99.90;;;;;;5013131;28;20463;-76
2023/05/31 05:04:27;;;;;;;6.47;1.70;;;21.60;99.90;;;;;;5025516;28;20406;-75
2023/05/31 05:06:53;;;;;;;7.43;2.40;;;22.70;99.90;;;;;;5021350;28;20921;-75
2023/05/31 05:09:18;;;;;;;9.30;2.20;;;24.00;99.90;;;;;;5025938;28;20484;-74
2023/05/31 05:11:44;;;;;;;6.38;1.90;;;24.80;99.90;;;;;;5034742;28;20553;-75
2023/05/31 05:14:10;;;;;;;6.20;1.80;;;24.80;99.90;;;;;;5030298;28;20410;-75
2023/05/31 05:16:36;;;;;;;7.53;1.93;;;25.10;99.90;;;;;;5028132;28;20395;-75
2023/05/31 05:19:01;;;;;;;7.47;1.80;;;25.40;99.90;;;;;;5043337;28;20441;-75
2023/05/31 05:21:28;;;;;;;8.30;2.40;;;25.40;99.90;;;;;;5030959;28;20472;-75
2023/05/31 05:23:54;;;;;;;7.10;1.80;;;25.60;99.90;;;;;;5030456;28;20461;-75
2023/05/31 05:26:20;;;;;;;6.10;1.97;;;26.40;99.90;;;;;;5030289;28;20818;-75
2023/05/31 05:28:45;;;;;;;7.57;2.00;;;26.80;99.90;;;;;;5030058;28;20399;-75
2023/05/31 05:31:11;;;;;;;6.20;1.60;;;26.90;99.90;;;;;;5031026;28;20387;-75
2023/05/31 05:33:36;;;;;;;7.17;1.90;;;27.20;99.90;;;;;;5030518;28;20502;-75
2023/05/31 05:36:02;;;;;;;8.23;2.00;;;27.70;99.90;;;;;;5034873;28;20387;-75
2023/05/31 05:38:27;;;;;;;9.35;2.92;;;28.10;99.90;;;;;;5038582;28;20426;-75
2023/05/31 05:40:53;;;;;;;8.27;1.80;;;28.70;99.90;;;;;;5031421;28;20433;-75
2023/05/31 05:43:18;;;;;;;7.53;1.70;;;28.60;99.90;;;;;;5030672;28;20547;-72
2023/05/31 05:45:44;;;;;;;7.50;2.00;;;27.30;99.90;;;;;;5029462;28;20442;-72
2023/05/31 05:48:09;;;;;;;7.00;1.70;;;27.20;1.00;;;;;;5030137;28;20530;-75
2023/05/31 05:50:35;;;;;;;7.18;1.60;;;;;;;;;;5030665;28;20391;-75
2023/05/31 05:53:01;;;;;;;8.15;2.20;;;28.50;99.90;;;;;;5029379;28;21096;-75
2023/05/31 05:55:27;;;;;;;7.10;1.60;;;28.50;99.90;;;;;;5028126;28;20444;-75
2023/05/31 05:57:52;;;;;;;7.33;1.70;;;27.70;99.90;;;;;;5029002;28;20518;-75
2023/05/31 06:00:18;;;;;;;8.80;2.10;;;27.70;99.90;;;;;;5027546;28;20444;-75
2023/05/31 06:02:44;;;;;;;8.68;2.13;;;27.00;99.90;;;;;;5028452;28;20445;-75
2023/05/31 06:05:10;;;;;;;9.70;1.90;;;26.50;99.90;;;;;;5022340;28;20415;-75
2023/05/31 06:07:35;;;;;;;8.43;2.30;;;26.70;99.90;;;;;;5028519;28;20383;-75
2023/05/31 06:10:02;;;;;;;7.80;2.30;;;26.90;99.90;;;;;;5028634;28;20473;-75
2023/05/31 06:12:28;;;;;;;9.40;1.75;;;26.40;99.90;;;;;;5029907;28;20390;-75
2023/05/31 06:14:54;;;;;;;8.30;2.40;;;25.80;99.90;;;;;;5029678;28;20395;-75
2023/05/31 06:17:19;;;;;;;7.23;2.07;;;26.50;99.90;;;;;;5027923;28;20422;-75
2023/05/31 06:19:45;;;;;;;7.40;1.90;;;27.10;99.90;;;;;;5029437;28;20387;-75
2023/05/31 06:22:11;;;;;;;10.07;1.90;;;27.00;99.90;;;;;;5027453;28;20497;-75
2023/05/31 06:24:37;;;;;;;7.03;1.80;;;26.90;99.90;;;;;;5029059;28;20877;-75
2023/05/31 06:27:04;;;;;;;7.00;1.90;;;27.30;99.90;;;;;;5029428;28;20384;-75
2023/05/31 06:29:30;;;;;;;7.70;1.95;;;27.20;99.90;;;;;;5020269;28;20409;-75
2023/05/31 06:31:56;;;;;;;8.50;2.30;;;27.80;99.90;;;;;;5015574;28;20419;-75
2023/05/31 06:34:21;;;;;;;7.10;2.10;;;27.40;99.90;;;;;;5009396;28;20455;-75
2023/05/31 06:36:48;;;;;;;6.80;2.20;;;27.80;99.90;;;;;;5010199;28;20399;-75
2023/05/31 06:39:14;;;;;;;7.55;1.90;;;27.80;99.90;;;;;;5015896;28;20379;-75
2023/05/31 06:41:40;;;;;;;7.80;1.80;;;27.60;99.90;;;;;;5029375;28;20465;-75
2023/05/31 06:44:05;;;;;;;9.90;1.80;;;27.80;99.90;;;;;;5028405;28;20635;-73
2023/05/31 06:46:31;;;;;;;6.70;2.10;;;28.50;99.90;;;;;;5029555;28;20441;-75
2023/05/31 06:48:56;;;;;;;8.52;2.00;;;28.10;99.90;;;;;;5029210;28;20406;-75
2023/05/31 06:51:22;;;;;;;8.13;1.60;;;28.10;99.90;;;;;;5028937;28;20445;-75
2023/05/31 06:53:51;;;;;;;7.63;2.03;;;28.90;99.90;;;;;;5029108;28;20461;-75
2023/05/31 06:56:19;;;;;;;9.67;2.20;;;29.10;99.90;;;;;;5030328;28;20501;-75
2023/05/31 06:58:46;;;;;;;11.90;2.13;;;29.10;99.90;;;;;;5028353;28;20415;-75
2023/05/31 07:01:11;;;;;;;10.90;2.63;;;29.00;99.90;;;;;;5027494;28;20407;-75
2023/05/31 07:03:37;;;;;;;11.40;2.20;;;28.30;99.90;;;;;;5028818;28;20417;-75
2023/05/31 07:06:02;;;;;;;7.27;1.87;;;27.90;99.90;;;;;;5028936;28;20919;-75
2023/05/31 07:08:28;;;;;;;8.40;2.10;;;28.20;99.90;;;;;;5029190;28;20900;-75
2023/05/31 07:10:54;;;;;;;7.20;2.00;;;28.20;99.90;;;;;;5028945;28;20395;-75
2023/05/31 07:13:19;;;;;;;8.25;1.75;;;29.00;99.90;;;;;;5028198;28;20395;-75
2023/05/31 07:15:45;;;;;;;7.00;1.90;;;29.10;99.90;;;;;;5027487;28;20380;-75
2023/05/31 07:18:11;;;;;;;7.00;2.07;;;29.40;99.90;;;;;;5029924;28;20430;-75
2023/05/31 07:20:36;;;;;;;6.60;1.90;;;30.00;99.90;;;;;;5027399;28;20395;-75
2023/05/31 07:23:02;;;;;;;11.20;2.40;;;30.20;99.90;;;;;;5027502;28;20418;-75
2023/05/31 07:25:27;;;;;;;10.60;1.95;;;30.00;99.90;;;;;;5028423;28;20405;-75
2023/05/31 07:27:53;;;;;;;7.85;1.60;;;29.70;99.90;;;;;;5028376;28;20482;-75
2023/05/31 07:30:19;;;;;;;15.67;3.07;;;29.80;99.90;;;;;;5028737;28;20450;-75
2023/05/31 07:32:45;;;;;;;17.20;2.90;;;29.70;99.90;;;;;;5027474;28;20387;-75
2023/05/31 07:35:10;;;;;;;6.85;1.63;;;29.40;99.90;;;;;;5028733;28;20389;-75
2023/05/31 07:37:36;;;;;;;6.60;1.63;;;29.90;99.90;;;;;;5030598;28;20913;-75
2023/05/31 07:40:03;;;;;;;9.97;1.60;;;30.20;99.90;;;;;;5030102;28;20398;-75
2023/05/31 07:42:28;;;;;;;11.03;1.80;;;30.30;99.90;;;;;;5030090;28;20445;-76
2023/05/31 07:44:54;;;;;;;8.67;2.07;;;30.10;99.90;;;;;;5029461;28;20387;-75
2023/05/31 07:47:20;;;;;;;8.30;2.20;;;29.70;99.90;;;;;;5029170;28;20896;-75
2023/05/31 07:49:46;;;;;;;6.80;1.90;;;29.30;99.90;;;;;;5036647;28;20869;-75
2023/05/31 07:52:13;;;;;;;6.20;1.47;;;29.80;99.90;;;;;;5032182;28;20506;-76
2023/05/31 07:54:38;;;;;;;7.60;2.00;;;31.00;99.90;;;;;;5034739;28;20395;-76
2023/05/31 07:57:05;;;;;;;10.00;2.50;;;32.00;99.90;;;;;;5029107;28;20710;-76
2023/05/31 07:59:31;;;;;;;6.70;1.80;;;31.80;99.90;;;;;;5045579;28;20884;-75
2023/05/31 08:01:56;;;;;;;8.43;1.90;;;31.70;99.90;;;;;;5034569;28;20506;-76
2023/05/31 08:04:22;;;;;;;6.07;1.90;;;32.20;99.90;;;;;;5028254;28;20493;-76
2023/05/31 08:06:47;;;;;;;8.87;2.10;;;32.10;99.90;;;;;;5028547;28;20434;-75
2023/05/31 08:09:13;;;;;;;9.90;2.60;;;32.10;99.90;;;;;;5028991;28;20909;-75
2023/05/31 08:11:39;;;;;;;8.05;2.28;;;31.50;99.90;;;;;;5028796;28;20391;-75
2023/05/31 08:14:05;;;;;;;10.80;2.33;;;31.50;99.90;;;;;;5028611;28;20808;-76
2023/05/31 08:16:32;;;;;;;6.72;1.77;;;31.40;99.90;;;;;;5029672;28;20411;-76
2023/05/31 08:18:58;;;;;;;8.52;2.17;;;31.90;99.90;;;;;;5029260;28;20406;-75
2023/05/31 08:21:24;;;;;;;8.75;2.13;;;31.20;99.90;;;;;;5028401;28;20723;-76
2023/05/31 08:23:49;;;;;;;10.17;2.03;;;31.00;99.90;;;;;;5028132;28;20433;-75
2023/05/31 08:26:15;;;;;;;13.10;1.93;;;30.20;99.90;;;;;;5026552;28;20395;-76
2023/05/31 08:28:41;;;;;;;10.13;2.27;;;29.90;99.90;;;;;;5027871;28;20413;-76
2023/05/31 08:31:07;;;;;;;8.80;2.10;;;30.20;99.90;;;;;;5027836;28;20387;-75
2023/05/31 08:33:32;;;;;;;7.60;2.17;;;30.30;99.90;;;;;;5028573;28;20432;-76
2023/05/31 08:35:59;;;;;;;10.83;2.00;;;31.60;99.90;;;;;;5029967;28;20387;-76
2023/05/31 08:38:28;;;;;;;8.02;2.38;;;32.00;99.90;;;;;;5027896;28;20402;-76
2023/05/31 08:40:56;;;;;;;7.95;2.10;;;32.60;99.90;;;;;;5008255;28;20389;-76
2023/05/31 08:43:25;;;;;;;8.25;2.25;;;32.60;99.90;;;;;;5008061;28;20479;-75
2023/05/31 08:45:51;;;;;;;7.47;2.20;;;32.50;99.90;;;;;;5013758;28;20392;-75
2023/05/31 08:48:37;;;;;;;10.23;2.13;;;32.50;99.90;;;;;;5021734;28;20480;-76
2023/05/31 08:51:05;;;;;;;7.63;2.20;;;33.00;99.90;;;;;;5013104;28;20852;-76
2023/05/31 08:53:33;;;;;;;8.25;2.10;;;33.60;99.90;;;;;;5012615;28;20415;-75
2023/05/31 08:56:01;;;;;;;8.80;2.10;;;33.20;99.90;;;;;;5031943;28;20407;-76
2023/05/31 08:58:28;;;;;;;20.27;2.63;;;33.60;99.90;;;;;;5033197;28;20399;-76
2023/05/31 09:00:54;;;;;;;8.50;2.13;;;32.10;99.90;;;;;;5031835;28;20438;-76
2023/05/31 09:03:22;;;;;;;9.25;2.35;;;32.10;99.90;;;;;;5032147;28;20460;-75
2023/05/31 09:05:48;;;;;;;9.10;2.30;;;32.10;99.90;;;;;;5031726;28;20931;-75
2023/05/31 09:08:13;;;;;;;9.80;2.57;;;32.20;99.90;;;;;;5032703;28;20391;-76
2023/05/31 09:10:40;;;;;;;7.70;2.00;;;31.70;99.90;;;;;;5030379;28;20387;-75
2023/05/31 09:13:06;;;;;;;6.97;2.00;;;31.30;99.90;;;;;;5031299;28;20996;-75
2023/05/31 09:15:35;;;;;;;13.38;2.38;;;31.80;99.90;;;;;;5029423;28;20874;-75
2023/05/31 09:18:20;;;;;;;8.38;2.38;;;32.60;99.90;;;;;;5024059;28;20451;-75
2023/05/31 09:20:49;;;;;;;8.00;2.00;;;32.30;99.90;;;;;;5011587;28;20907;-75
2023/05/31 09:23:17;;;;;;;9.10;2.40;;;32.30;99.90;;;;;;5012107;28;20412;-76
2023/05/31 09:25:47;;;;;;;7.07;1.60;;;33.10;99.90;;;;;;5011759;28;20429;-75
2023/05/31 09:28:13;;;;;;;10.38;2.00;;;33.10;99.90;;;;;;5011537;28;20392;-76
2023/05/31 09:30:39;;;;;;;11.50;2.10;;;32.40;99.90;;;;;;5023303;28;20415;-76
2023/05/31 09:33:06;;;;;;;8.70;2.10;;;32.50;99.90;;;;;;5030665;28;20486;-76
2023/05/31 09:35:31;;;;;;;8.10;2.28;;;33.40;99.90;;;;;;5030806;28;20423;-76
2023/05/31 09:37:57;;;;;;;9.20;2.00;;;34.40;99.90;;;;;;5029870;28;20791;-76
2023/05/31 09:40:24;;;;;;;8.27;2.00;;;34.60;99.90;;;;;;5031323;28;20391;-76
2023/05/31 09:42:52;;;;;;;9.85;2.40;;;34.40;99.90;;;;;;5030584;28;20434;-76
2023/05/31 09:45:18;;;;;;;9.60;2.03;;;33.90;99.90;;;;;;5031870;28;20450;-76
2023/05/31 09:47:44;;;;;;;6.63;2.08;;;33.50;99.90;;;;;;5031021;28;20459;-76
2023/05/31 09:50:21;;;;;;;10.70;2.30;;;33.10;99.90;;;;;;5030865;28;20398;-75
2023/05/31 09:52:49;;;;;;;12.13;2.50;;;31.60;99.90;;;;;;5031559;28;20390;-75
2023/05/31 09:55:16;;;;;;;7.82;2.00;;;31.40;99.90;;;;;;5028607;28;20380;-75
2023/05/31 09:57:44;;;;;;;7.05;1.80;;;31.80;99.90;;;;;;5028345;28;20925;-76
2023/05/31 10:00:18;;;;;;;10.55;2.30;;;32.00;99.90;;;;;;5030304;28;20395;-76
2023/05/31 10:02:46;;;;;;;15.90;2.30;;;31.50;99.90;;;;;;5030232;28;20434;-75
2023/05/31 10:05:12;;;;;;;10.18;2.67;;;31.30;99.90;;;;;;5030736;28;20393;-77
2023/05/31 10:07:39;;;;;;;6.82;1.80;;;31.70;99.90;;;;;;5030910;28;20470;-76
2023/05/31 10:10:06;;;;;;;8.73;1.80;;;32.20;99.90;;;;;;5031281;28;20383;-77
2023/05/31 10:12:39;;;;;;;7.40;2.20;;;32.40;99.90;;;;;;5030036;28;20383;-75
2023/05/31 10:15:10;;;;;;;11.82;2.00;;;31.90;99.90;;;;;;5030769;28;20402;-75
2023/05/31 10:17:45;;;;;;;6.10;1.67;;;31.70;99.90;;;;;;5030567;28;20411;-75
2023/05/31 10:20:15;;;;;;;7.50;2.40;;;31.20;99.90;;;;;;5030995;28;20524;-76
2023/05/31 10:22:44;;;;;;;8.73;2.53;;;31.90;99.90;;;;;;5030347;28;20451;-75
2023/05/31 10:25:17;;;;;;;6.35;1.63;;;31.60;99.90;;;;;;5029785;28;20402;-76
2023/05/31 10:27:45;;;;;;;7.30;2.20;;;30.80;99.90;;;;;;5028934;28;20391;-75
2023/05/31 10:30:13;;;;;;;8.00;2.10;;;30.60;99.90;;;;;;5030313;28;20410;-75
2023/05/31 10:32:46;;;;;;;7.32;2.30;;;30.50;99.90;;;;;;5029715;28;20811;-75
2023/05/31 10:35:11;;;;;;;8.82;1.80;;;30.00;99.90;;;;;;5029479;28;20939;-75
2023/05/31 10:37:41;;;;;;;7.75;2.10;;;29.50;99.90;;;;;;5029890;28;20407;-75
2023/05/31 10:40:19;;;;;;;11.27;2.33;;;29.30;99.90;;;;;;5029393;28;20395;-75
2023/05/31 10:42:56;;;;;;;7.90;2.10;;;29.10;99.90;;;;;;5029509;28;20419;-76
2023/05/31 10:46:06;;;;;;;8.68;2.60;;;28.80;99.90;;;;;;5030009;28;20434;-76
2023/05/31 10:48:52;;;;;;;7.25;2.20;;;28.70;99.90;;;;;;4986991;28;20425;-75
2023/05/31 10:51:18;;;;;;;7.13;2.80;;;28.60;99.90;;;;;;5007233;28;20433;-75
2023/05/31 10:53:47;;;;;;;7.20;2.00;;;28.20;99.90;;;;;;5008271;28;20475;-75
2023/05/31 10:56:14;;;;;;;8.35;2.25;;;28.50;99.90;;;;;;5024092;28;20965;-75
2023/05/31 10:58:42;;;;;;;8.18;2.90;;;28.70;99.90;;;;;;5028782;28;20486;-75
2023/05/31 11:01:11;;;;;;;7.68;1.90;;;28.70;99.90;;;;;;5028536;28;20476;-75
2023/05/31 11:03:46;;;;;;;8.27;2.33;;;27.80;99.90;;;;;;5028825;28;20399;-75
2023/05/31 11:06:13;;;;;;;18.92;2.85;;;27.50;99.90;;;;;;5027747;28;20395;-75
2023/05/31 11:08:56;;;;;;;10.77;2.30;;;26.90;99.90;;;;;;5033006;28;20401;-75
2023/05/31 11:11:32;;;;;;;10.82;2.40;;;26.90;99.90;;;;;;5039573;28;20407;-75
2023/05/31 11:13:59;;;;;;;8.30;2.28;;;27.20;99.90;;;;;;5029867;28;20483;-75
2023/05/31 11:16:26;;;;;;;12.20;2.70;;;27.60;99.90;;;;;;5030322;28;20467;-75
2023/05/31 11:19:12;;;;;;;7.25;2.15;;;27.80;99.90;;;;;;5048817;28;20973;-75
2023/05/31 11:21:52;;;;;;;11.30;2.40;;;27.80;99.90;;;;;;5048942;28;20515;-75
2023/05/31 11:24:30;;;;;;;8.35;1.95;;;28.10;99.90;;;;;;5044214;28;20504;-75
2023/05/31 11:27:05;;;;;;;8.70;2.30;;;28.30;99.90;;;;;;5029334;28;20383;-75
2023/05/31 11:29:54;;;;;;;6.85;1.98;;;28.40;99.90;;;;;;5029675;28;20383;-75
2023/05/31 11:32:40;;;;;;;8.70;2.50;;;28.30;99.90;;;;;;5029399;28;20474;-75
2023/05/31 11:35:08;;;;;;;13.77;2.60;;;28.20;99.90;;;;;;5030714;28;20909;-75
2023/05/31 11:37:36;;;;;;;6.73;1.87;;;27.90;99.90;;;;;;5029503;28;20418;-75
2023/05/31 11:40:09;;;;;;;7.75;2.10;;;27.40;99.90;;;;;;5027373;28;20407;-75
2023/05/31 11:42:36;;;;;;;6.90;2.17;;;27.20;99.90;;;;;;5027522;28;20411;-75
2023/05/31 11:45:22;;;;;;;9.00;2.20;;;27.20;99.90;;;;;;5027987;28;20379;-75
2023/05/31 11:48:14;;;;;;;8.98;2.35;;;27.60;99.90;;;;;;5027683;28;20391;-75
2023/05/31 11:50:42;;;;;;;7.25;2.38;;;27.80;99.90;;;;;;5025343;28;20435;-75
2023/05/31 11:53:10;;;;;;;8.63;2.20;;;28.00;99.90;;;;;;5026641;28;20404;-76
2023/05/31 11:55:36;;;;;;;6.07;1.88;;;28.20;99.90;;;;;;5027704;28;20463;-75
2023/05/31 11:58:05;;;;;;;7.07;1.90;;;28.10;99.90;;;;;;5028791;28;20391;-75
2023/05/31 12:00:31;;;;;;;7.53;1.80;;;27.90;99.90;;;;;;5028151;28;20896;-75
2023/05/31 12:02:57;;;;;;;7.28;1.80;;;28.00;99.90;;;;;;5027925;28;20509;-76
2023/05/31 12:05:23;;;;;;;6.70;2.35;;;27.40;99.90;;;;;;5030111;28;20457;-76
2023/05/31 12:07:53;;;;;;;8.70;2.63;;;27.20;99.90;;;;;;5047582;28;20394;-75
2023/05/31 12:10:30;;;;;;;8.43;1.90;;;27.20;99.90;;;;;;5047221;28;20733;-75
2023/05/31 12:12:58;;;;;;;9.00;2.10;;;27.40;99.90;;;;;;5046375;28;20389;-75
2023/05/31 12:15:23;;;;;;;11.10;2.20;;;27.60;99.90;;;;;;5028092;28;20422;-75
2023/05/31 12:17:49;;;;;;;6.80;1.70;;;27.20;99.90;;;;;;5034792;28;20810;-75
2023/05/31 12:20:14;;;;;;;6.73;2.07;;;27.30;99.90;;;;;;5044033;28;20383;-75
2023/05/31 12:22:40;;;;;;;8.53;2.07;;;27.40;99.90;;;;;;5030575;28;20422;-75
2023/05/31 12:25:06;;;;;;;9.60;2.33;;;27.80;99.90;;;;;;5030184;28;20921;-75
2023/05/31 12:27:32;;;;;;;6.88;2.08;;;27.70;99.90;;;;;;5031723;28;20502;-75
2023/05/31 12:30:00;;;;;;;9.32;1.60;;;27.70;99.90;;;;;;5032364;28;20838;-75
2023/05/31 12:32:29;;;;;;;9.55;2.00;;;27.60;99.90;;;;;;5030121;28;20849;-75
2023/05/31 12:35:10;;;;;;;8.00;2.30;;;27.50;99.90;;;;;;5031351;28;20422;-76
2023/05/31 12:37:37;;;;;;;7.07;1.88;;;27.60;99.90;;;;;;5032031;28;20418;-75
2023/05/31 12:40:15;;;;;;;8.77;2.00;;;27.70;99.90;;;;;;5034130;28;20448;-76
2023/05/31 12:42:41;;;;;;;14.48;2.10;;;28.00;99.90;;;;;;5033098;28;20446;-75
2023/05/31 12:45:08;;;;;;;12.10;2.20;;;27.80;99.90;;;;;;5031481;28;20403;-76
2023/05/31 12:47:37;;;;;;;6.50;1.98;;;26.70;99.90;;;;;;5031670;28;20423;-75
2023/05/31 12:50:07;;;;;;;6.20;1.98;;;26.50;99.90;;;;;;5027378;28;20417;-75
2023/05/31 12:52:34;;;;;;;9.00;2.05;;;26.80;99.90;;;;;;5011843;28;20389;-75